sensor_id;sensor_type;location;lat;lon;timestamp;P1;durP1;ratioP1;P2;durP2;ratioP2
37483;SDS011;23337;52.212;9.926;2023-02-28T00:01:17;5.63;;;3.27;;
37483;SDS011;23337;52.212;9.926;2023-02-28T00:03:43;4.13;;;3.57;;
37483;SDS011;23337;52.212;9.926;2023-02-28T00:06:09;5.17;;;3.77;;
37483;SDS011;23337;52.212;9.926;2023-02-28T00:08:35;5.60;;;3.23;;
37483;SDS011;23337;52.212;9.926;2023-02-28T00:11:02;5.43;;;3.33;;
37483;SDS011;23337;52.212;9.926;2023-02-28T00:13:28;4.73;;;3.80;;
37483;SDS011;23337;52.212;9.926;2023-02-28T00:16:01;5.97;;;3.50;;
37483;SDS011;23337;52.212;9.926;2023-02-28T00:18:27;4.33;;;3.83;;
37483;SDS011;23337;52.212;9.926;2023-02-28T00:20:53;8.20;;;3.97;;
37483;SDS011;23337;52.212;9.926;2023-02-28T00:23:19;7.37;;;4.27;;
37483;SDS011;23337;52.212;9.926;2023-02-28T00:25:45;7.03;;;4.57;;
37483;SDS011;23337;52.212;9.926;2023-02-28T00:28:11;4.97;;;3.83;;
37483;SDS011;23337;52.212;9.926;2023-02-28T00:30:37;6.03;;;4.27;;
37483;SDS011;23337;52.212;9.926;2023-02-28T00:33:03;5.57;;;3.73;;
37483;SDS011;23337;52.212;9.926;2023-02-28T00:35:29;6.43;;;4.03;;
37483;SDS011;23337;52.212;9.926;2023-02-28T00:37:55;6.07;;;4.30;;
37483;SDS011;23337;52.212;9.926;2023-02-28T00:40:21;5.03;;;4.53;;
37483;SDS011;23337;52.212;9.926;2023-02-28T00:42:47;6.07;;;4.27;;
37483;SDS011;23337;52.212;9.926;2023-02-28T00:45:13;6.00;;;3.97;;
37483;SDS011;23337;52.212;9.926;2023-02-28T00:47:39;6.17;;;4.67;;
37483;SDS011;23337;52.212;9.926;2023-02-28T00:50:05;5.73;;;4.53;;
37483;SDS011;23337;52.212;9.926;2023-02-28T00:52:31;6.47;;;5.00;;
37483;SDS011;23337;52.212;9.926;2023-02-28T00:54:57;4.97;;;4.47;;
37483;SDS011;23337;52.212;9.926;2023-02-28T00:57:23;6.23;;;4.50;;
37483;SDS011;23337;52.212;9.926;2023-02-28T00:59:49;5.93;;;4.00;;
37483;SDS011;23337;52.212;9.926;2023-02-28T01:02:15;6.47;;;4.80;;
37483;SDS011;23337;52.212;9.926;2023-02-28T01:04:42;7.70;;;4.73;;
37483;SDS011;23337;52.212;9.926;2023-02-28T01:07:08;5.50;;;4.30;;
37483;SDS011;23337;52.212;9.926;2023-02-28T01:09:34;5.33;;;3.90;;
37483;SDS011;23337;52.212;9.926;2023-02-28T01:12:00;8.23;;;3.83;;
37483;SDS011;23337;52.212;9.926;2023-02-28T01:14:26;6.00;;;4.30;;
37483;SDS011;23337;52.212;9.926;2023-02-28T01:16:52;7.20;;;4.60;;
37483;SDS011;23337;52.212;9.926;2023-02-28T01:19:18;5.10;;;4.17;;
37483;SDS011;23337;52.212;9.926;2023-02-28T01:21:44;6.43;;;4.67;;
37483;SDS011;23337;52.212;9.926;2023-02-28T01:24:10;6.60;;;5.03;;
37483;SDS011;23337;52.212;9.926;2023-02-28T01:26:36;6.83;;;5.90;;
37483;SDS011;23337;52.212;9.926;2023-02-28T01:29:02;6.23;;;4.30;;
37483;SDS011;23337;52.212;9.926;2023-02-28T01:31:28;8.73;;;5.13;;
37483;SDS011;23337;52.212;9.926;2023-02-28T01:33:54;5.33;;;4.30;;
37483;SDS011;23337;52.212;9.926;2023-02-28T01:36:21;5.90;;;4.57;;
37483;SDS011;23337;52.212;9.926;2023-02-28T01:38:47;4.90;;;4.40;;
37483;SDS011;23337;52.212;9.926;2023-02-28T01:41:21;6.70;;;4.07;;
37483;SDS011;23337;52.212;9.926;2023-02-28T01:46:13;5.90;;;3.70;;
37483;SDS011;23337;52.212;9.926;2023-02-28T01:48:44;6.53;;;3.93;;
37483;SDS011;23337;52.212;9.926;2023-02-28T01:51:12;5.37;;;3.87;;
37483;SDS011;23337;52.212;9.926;2023-02-28T01:53:44;6.57;;;3.90;;
37483;SDS011;23337;52.212;9.926;2023-02-28T01:56:12;4.90;;;4.10;;
37483;SDS011;23337;52.212;9.926;2023-02-28T01:58:45;5.00;;;4.10;;
37483;SDS011;23337;52.212;9.926;2023-02-28T02:01:12;5.00;;;4.23;;
37483;SDS011;23337;52.212;9.926;2023-02-28T02:03:46;5.43;;;4.10;;
37483;SDS011;23337;52.212;9.926;2023-02-28T02:06:12;5.13;;;4.00;;
37483;SDS011;23337;52.212;9.926;2023-02-28T02:08:38;5.93;;;4.17;;
37483;SDS011;23337;52.212;9.926;2023-02-28T02:11:04;5.57;;;4.20;;
37483;SDS011;23337;52.212;9.926;2023-02-28T02:13:51;5.43;;;4.57;;
37483;SDS011;23337;52.212;9.926;2023-02-28T02:42:16;7.13;;;4.60;;
37483;SDS011;23337;52.212;9.926;2023-02-28T02:44:51;5.83;;;4.23;;
37483;SDS011;23337;52.212;9.926;2023-02-28T02:47:19;6.80;;;5.90;;
37483;SDS011;23337;52.212;9.926;2023-02-28T02:49:47;6.30;;;4.63;;
37483;SDS011;23337;52.212;9.926;2023-02-28T02:52:15;8.30;;;4.83;;
37483;SDS011;23337;52.212;9.926;2023-02-28T02:54:44;5.47;;;4.07;;
37483;SDS011;23337;52.212;9.926;2023-02-28T02:57:12;4.43;;;3.87;;
37483;SDS011;23337;52.212;9.926;2023-02-28T02:59:40;5.07;;;3.97;;
37483;SDS011;23337;52.212;9.926;2023-02-28T03:02:08;5.53;;;4.97;;
37483;SDS011;23337;52.212;9.926;2023-02-28T03:04:40;7.33;;;4.80;;
37483;SDS011;23337;52.212;9.926;2023-02-28T03:07:07;5.73;;;4.70;;
37483;SDS011;23337;52.212;9.926;2023-02-28T03:09:34;7.40;;;5.07;;
37483;SDS011;23337;52.212;9.926;2023-02-28T03:12:03;5.20;;;4.53;;
37483;SDS011;23337;52.212;9.926;2023-02-28T03:17:25;5.50;;;4.47;;
37483;SDS011;23337;52.212;9.926;2023-02-28T03:25:31;4.57;;;4.17;;
37483;SDS011;23337;52.212;9.926;2023-02-28T03:28:02;7.47;;;4.27;;
37483;SDS011;23337;52.212;9.926;2023-02-28T03:33:12;5.20;;;4.23;;
37483;SDS011;23337;52.212;9.926;2023-02-28T03:35:42;6.70;;;4.50;;
37483;SDS011;23337;52.212;9.926;2023-02-28T03:38:20;5.57;;;4.10;;
37483;SDS011;23337;52.212;9.926;2023-02-28T03:40:49;5.43;;;4.50;;
37483;SDS011;23337;52.212;9.926;2023-02-28T03:43:21;4.30;;;3.83;;
37483;SDS011;23337;52.212;9.926;2023-02-28T03:45:48;6.53;;;4.80;;
37483;SDS011;23337;52.212;9.926;2023-02-28T03:48:17;4.83;;;3.43;;
37483;SDS011;23337;52.212;9.926;2023-02-28T03:50:46;5.03;;;4.00;;
37483;SDS011;23337;52.212;9.926;2023-02-28T03:53:14;6.13;;;4.27;;
37483;SDS011;23337;52.212;9.926;2023-02-28T03:55:47;5.43;;;4.13;;
37483;SDS011;23337;52.212;9.926;2023-02-28T03:58:16;7.13;;;4.60;;
37483;SDS011;23337;52.212;9.926;2023-02-28T04:00:46;7.93;;;4.67;;
37483;SDS011;23337;52.212;9.926;2023-02-28T04:03:14;7.73;;;4.27;;
37483;SDS011;23337;52.212;9.926;2023-02-28T04:05:46;4.57;;;4.10;;
37483;SDS011;23337;52.212;9.926;2023-02-28T04:08:15;8.40;;;5.17;;
37483;SDS011;23337;52.212;9.926;2023-02-28T04:10:41;6.63;;;4.50;;
37483;SDS011;23337;52.212;9.926;2023-02-28T04:13:09;5.43;;;4.27;;
37483;SDS011;23337;52.212;9.926;2023-02-28T04:15:34;6.20;;;4.47;;
37483;SDS011;23337;52.212;9.926;2023-02-28T04:18:01;5.50;;;4.43;;
37483;SDS011;23337;52.212;9.926;2023-02-28T04:20:27;6.17;;;4.83;;
37483;SDS011;23337;52.212;9.926;2023-02-28T04:22:53;7.00;;;4.97;;
37483;SDS011;23337;52.212;9.926;2023-02-28T04:25:19;5.87;;;4.70;;
37483;SDS011;23337;52.212;9.926;2023-02-28T04:27:45;6.47;;;5.07;;
37483;SDS011;23337;52.212;9.926;2023-02-28T04:30:11;4.63;;;3.80;;
37483;SDS011;23337;52.212;9.926;2023-02-28T04:32:37;11.13;;;6.53;;
37483;SDS011;23337;52.212;9.926;2023-02-28T04:35:03;7.37;;;4.63;;
37483;SDS011;23337;52.212;9.926;2023-02-28T04:37:29;6.80;;;4.47;;
37483;SDS011;23337;52.212;9.926;2023-02-28T04:39:59;5.50;;;4.10;;
37483;SDS011;23337;52.212;9.926;2023-02-28T04:42:25;5.83;;;3.73;;
37483;SDS011;23337;52.212;9.926;2023-02-28T04:44:51;4.93;;;4.43;;
37483;SDS011;23337;52.212;9.926;2023-02-28T04:47:17;4.43;;;3.83;;
37483;SDS011;23337;52.212;9.926;2023-02-28T04:49:43;3.97;;;3.17;;
37483;SDS011;23337;52.212;9.926;2023-02-28T04:52:09;4.87;;;3.67;;
37483;SDS011;23337;52.212;9.926;2023-02-28T04:54:35;5.67;;;3.50;;
37483;SDS011;23337;52.212;9.926;2023-02-28T04:57:03;5.20;;;3.30;;
37483;SDS011;23337;52.212;9.926;2023-02-28T04:59:29;4.93;;;3.77;;
37483;SDS011;23337;52.212;9.926;2023-02-28T05:01:55;6.27;;;4.70;;
37483;SDS011;23337;52.212;9.926;2023-02-28T05:04:21;8.43;;;4.37;;
37483;SDS011;23337;52.212;9.926;2023-02-28T05:06:47;6.63;;;4.27;;
37483;SDS011;23337;52.212;9.926;2023-02-28T05:09:13;5.97;;;3.80;;
37483;SDS011;23337;52.212;9.926;2023-02-28T05:11:39;4.77;;;3.97;;
37483;SDS011;23337;52.212;9.926;2023-02-28T05:14:06;6.20;;;4.67;;
37483;SDS011;23337;52.212;9.926;2023-02-28T05:16:32;5.97;;;4.20;;
37483;SDS011;23337;52.212;9.926;2023-02-28T05:18:59;6.70;;;4.60;;
37483;SDS011;23337;52.212;9.926;2023-02-28T05:21:26;6.40;;;4.13;;
37483;SDS011;23337;52.212;9.926;2023-02-28T05:23:53;8.07;;;4.20;;
37483;SDS011;23337;52.212;9.926;2023-02-28T05:26:19;5.77;;;3.77;;
37483;SDS011;23337;52.212;9.926;2023-02-28T05:28:45;4.90;;;3.53;;
37483;SDS011;23337;52.212;9.926;2023-02-28T05:31:11;7.50;;;3.83;;
37483;SDS011;23337;52.212;9.926;2023-02-28T05:33:37;5.00;;;4.07;;
37483;SDS011;23337;52.212;9.926;2023-02-28T05:36:03;5.10;;;4.03;;
37483;SDS011;23337;52.212;9.926;2023-02-28T05:38:29;6.27;;;4.63;;
37483;SDS011;23337;52.212;9.926;2023-02-28T05:40:55;5.57;;;4.10;;
37483;SDS011;23337;52.212;9.926;2023-02-28T05:43:21;5.07;;;4.10;;
37483;SDS011;23337;52.212;9.926;2023-02-28T05:45:48;5.53;;;4.57;;
37483;SDS011;23337;52.212;9.926;2023-02-28T05:48:14;5.97;;;4.27;;
37483;SDS011;23337;52.212;9.926;2023-02-28T05:50:40;5.50;;;3.97;;
37483;SDS011;23337;52.212;9.926;2023-02-28T05:53:07;6.23;;;3.90;;
37483;SDS011;23337;52.212;9.926;2023-02-28T05:55:33;8.00;;;5.00;;
37483;SDS011;23337;52.212;9.926;2023-02-28T05:58:00;8.40;;;5.40;;
37483;SDS011;23337;52.212;9.926;2023-02-28T06:00:26;6.00;;;4.50;;
37483;SDS011;23337;52.212;9.926;2023-02-28T06:02:52;8.03;;;4.80;;
37483;SDS011;23337;52.212;9.926;2023-02-28T06:05:21;6.53;;;4.30;;
37483;SDS011;23337;52.212;9.926;2023-02-28T06:07:47;8.90;;;4.70;;
37483;SDS011;23337;52.212;9.926;2023-02-28T06:10:13;6.00;;;4.57;;
37483;SDS011;23337;52.212;9.926;2023-02-28T06:12:39;7.40;;;4.40;;
37483;SDS011;23337;52.212;9.926;2023-02-28T06:15:12;6.70;;;4.17;;
37483;SDS011;23337;52.212;9.926;2023-02-28T06:17:39;7.00;;;4.77;;
37483;SDS011;23337;52.212;9.926;2023-02-28T06:20:05;22.83;;;12.03;;
37483;SDS011;23337;52.212;9.926;2023-02-28T06:22:31;29.30;;;15.10;;
37483;SDS011;23337;52.212;9.926;2023-02-28T06:24:57;12.17;;;6.97;;
37483;SDS011;23337;52.212;9.926;2023-02-28T06:27:23;7.40;;;5.10;;
37483;SDS011;23337;52.212;9.926;2023-02-28T06:29:53;7.13;;;4.50;;
37483;SDS011;23337;52.212;9.926;2023-02-28T06:32:19;7.03;;;4.23;;
37483;SDS011;23337;52.212;9.926;2023-02-28T06:34:45;8.03;;;5.73;;
37483;SDS011;23337;52.212;9.926;2023-02-28T06:37:11;9.13;;;5.17;;
37483;SDS011;23337;52.212;9.926;2023-02-28T06:39:37;7.07;;;5.00;;
37483;SDS011;23337;52.212;9.926;2023-02-28T06:42:03;9.27;;;4.70;;
37483;SDS011;23337;52.212;9.926;2023-02-28T06:44:29;8.33;;;5.70;;
37483;SDS011;23337;52.212;9.926;2023-02-28T06:47:00;9.93;;;6.87;;
37483;SDS011;23337;52.212;9.926;2023-02-28T06:49:28;8.53;;;7.00;;
37483;SDS011;23337;52.212;9.926;2023-02-28T06:51:54;11.97;;;7.50;;
37483;SDS011;23337;52.212;9.926;2023-02-28T06:54:20;11.23;;;6.87;;
37483;SDS011;23337;52.212;9.926;2023-02-28T06:56:46;10.13;;;7.47;;
37483;SDS011;23337;52.212;9.926;2023-02-28T06:59:12;8.43;;;6.60;;
37483;SDS011;23337;52.212;9.926;2023-02-28T07:01:38;6.40;;;4.00;;
37483;SDS011;23337;52.212;9.926;2023-02-28T07:04:04;6.43;;;4.53;;
37483;SDS011;23337;52.212;9.926;2023-02-28T07:06:31;5.53;;;4.67;;
37483;SDS011;23337;52.212;9.926;2023-02-28T07:08:57;4.80;;;3.63;;
37483;SDS011;23337;52.212;9.926;2023-02-28T07:11:23;6.00;;;3.90;;
37483;SDS011;23337;52.212;9.926;2023-02-28T07:13:53;4.70;;;3.77;;
37483;SDS011;23337;52.212;9.926;2023-02-28T07:16:20;7.97;;;4.97;;
37483;SDS011;23337;52.212;9.926;2023-02-28T07:18:46;8.17;;;4.50;;
37483;SDS011;23337;52.212;9.926;2023-02-28T07:21:12;6.37;;;4.77;;
37483;SDS011;23337;52.212;9.926;2023-02-28T07:23:38;6.63;;;4.43;;
37483;SDS011;23337;52.212;9.926;2023-02-28T07:26:05;6.00;;;5.37;;
37483;SDS011;23337;52.212;9.926;2023-02-28T07:28:31;7.80;;;5.43;;
37483;SDS011;23337;52.212;9.926;2023-02-28T07:31:02;8.33;;;6.30;;
37483;SDS011;23337;52.212;9.926;2023-02-28T07:33:28;9.57;;;6.43;;
37483;SDS011;23337;52.212;9.926;2023-02-28T07:35:59;8.93;;;7.33;;
37483;SDS011;23337;52.212;9.926;2023-02-28T07:38:25;11.03;;;7.40;;
37483;SDS011;23337;52.212;9.926;2023-02-28T07:40:51;9.97;;;6.70;;
37483;SDS011;23337;52.212;9.926;2023-02-28T07:43:17;11.40;;;6.63;;
37483;SDS011;23337;52.212;9.926;2023-02-28T07:45:43;8.43;;;6.00;;
37483;SDS011;23337;52.212;9.926;2023-02-28T07:48:09;8.77;;;5.57;;
37483;SDS011;23337;52.212;9.926;2023-02-28T07:50:35;9.63;;;5.70;;
37483;SDS011;23337;52.212;9.926;2023-02-28T07:53:01;7.57;;;5.80;;
37483;SDS011;23337;52.212;9.926;2023-02-28T07:55:27;10.70;;;6.20;;
37483;SDS011;23337;52.212;9.926;2023-02-28T07:57:53;9.73;;;6.40;;
37483;SDS011;23337;52.212;9.926;2023-02-28T08:00:19;7.63;;;5.47;;
37483;SDS011;23337;52.212;9.926;2023-02-28T08:02:45;7.93;;;5.70;;
37483;SDS011;23337;52.212;9.926;2023-02-28T08:05:11;8.43;;;5.30;;
37483;SDS011;23337;52.212;9.926;2023-02-28T08:07:37;7.23;;;5.53;;
37483;SDS011;23337;52.212;9.926;2023-02-28T08:10:04;6.57;;;4.57;;
37483;SDS011;23337;52.212;9.926;2023-02-28T08:12:30;7.13;;;5.03;;
37483;SDS011;23337;52.212;9.926;2023-02-28T08:14:56;7.27;;;4.87;;
37483;SDS011;23337;52.212;9.926;2023-02-28T08:17:22;13.17;;;8.10;;
37483;SDS011;23337;52.212;9.926;2023-02-28T08:19:48;11.80;;;7.37;;
37483;SDS011;23337;52.212;9.926;2023-02-28T08:22:14;9.13;;;6.63;;
37483;SDS011;23337;52.212;9.926;2023-02-28T08:24:43;6.40;;;4.80;;
37483;SDS011;23337;52.212;9.926;2023-02-28T08:27:09;6.87;;;4.33;;
37483;SDS011;23337;52.212;9.926;2023-02-28T08:29:36;8.10;;;4.60;;
37483;SDS011;23337;52.212;9.926;2023-02-28T08:32:03;6.50;;;4.83;;
37483;SDS011;23337;52.212;9.926;2023-02-28T08:34:29;6.43;;;4.53;;
37483;SDS011;23337;52.212;9.926;2023-02-28T08:36:54;14.47;;;9.40;;
37483;SDS011;23337;52.212;9.926;2023-02-28T08:39:20;7.87;;;5.67;;
37483;SDS011;23337;52.212;9.926;2023-02-28T08:41:46;6.10;;;4.60;;
37483;SDS011;23337;52.212;9.926;2023-02-28T08:44:12;6.90;;;4.10;;
37483;SDS011;23337;52.212;9.926;2023-02-28T08:46:38;5.17;;;4.07;;
37483;SDS011;23337;52.212;9.926;2023-02-28T08:49:04;6.30;;;3.90;;
37483;SDS011;23337;52.212;9.926;2023-02-28T08:51:31;4.33;;;3.50;;
37483;SDS011;23337;52.212;9.926;2023-02-28T08:53:59;7.53;;;4.13;;
37483;SDS011;23337;52.212;9.926;2023-02-28T08:56:26;6.23;;;3.60;;
37483;SDS011;23337;52.212;9.926;2023-02-28T08:58:53;5.37;;;4.13;;
37483;SDS011;23337;52.212;9.926;2023-02-28T09:01:29;4.63;;;3.57;;
37483;SDS011;23337;52.212;9.926;2023-02-28T09:03:56;3.93;;;3.20;;
37483;SDS011;23337;52.212;9.926;2023-02-28T09:06:23;4.13;;;3.40;;
37483;SDS011;23337;52.212;9.926;2023-02-28T09:08:50;2.83;;;2.53;;
37483;SDS011;23337;52.212;9.926;2023-02-28T09:11:16;5.13;;;3.37;;
37483;SDS011;23337;52.212;9.926;2023-02-28T09:13:43;3.83;;;2.93;;
37483;SDS011;23337;52.212;9.926;2023-02-28T09:16:10;3.57;;;2.77;;
37483;SDS011;23337;52.212;9.926;2023-02-28T09:18:37;3.73;;;3.10;;
37483;SDS011;23337;52.212;9.926;2023-02-28T09:21:04;5.17;;;2.60;;
37483;SDS011;23337;52.212;9.926;2023-02-28T09:23:30;4.13;;;2.30;;
37483;SDS011;23337;52.212;9.926;2023-02-28T09:25:56;4.30;;;2.23;;
37483;SDS011;23337;52.212;9.926;2023-02-28T09:28:23;3.37;;;2.40;;
37483;SDS011;23337;52.212;9.926;2023-02-28T09:30:50;6.50;;;2.70;;
37483;SDS011;23337;52.212;9.926;2023-02-28T09:33:16;3.00;;;2.63;;
37483;SDS011;23337;52.212;9.926;2023-02-28T09:35:45;3.77;;;2.70;;
37483;SDS011;23337;52.212;9.926;2023-02-28T09:38:11;4.50;;;2.67;;
37483;SDS011;23337;52.212;9.926;2023-02-28T09:40:39;3.83;;;2.23;;
37483;SDS011;23337;52.212;9.926;2023-02-28T09:43:09;4.83;;;2.47;;
37483;SDS011;23337;52.212;9.926;2023-02-28T09:45:39;4.27;;;3.00;;
37483;SDS011;23337;52.212;9.926;2023-02-28T09:48:09;4.93;;;2.83;;
37483;SDS011;23337;52.212;9.926;2023-02-28T09:50:38;4.73;;;2.93;;
37483;SDS011;23337;52.212;9.926;2023-02-28T09:53:37;2.43;;;2.20;;
37483;SDS011;23337;52.212;9.926;2023-02-28T09:56:01;3.60;;;2.37;;
37483;SDS011;23337;52.212;9.926;2023-02-28T09:58:31;4.37;;;2.93;;
37483;SDS011;23337;52.212;9.926;2023-02-28T10:03:40;3.77;;;2.27;;
37483;SDS011;23337;52.212;9.926;2023-02-28T10:06:13;5.73;;;2.50;;
37483;SDS011;23337;52.212;9.926;2023-02-28T10:08:45;3.73;;;2.17;;
37483;SDS011;23337;52.212;9.926;2023-02-28T10:11:16;3.10;;;2.30;;
37483;SDS011;23337;52.212;9.926;2023-02-28T10:16:13;4.67;;;3.10;;
37483;SDS011;23337;52.212;9.926;2023-02-28T10:18:44;3.73;;;2.43;;
37483;SDS011;23337;52.212;9.926;2023-02-28T10:21:17;3.97;;;2.57;;
37483;SDS011;23337;52.212;9.926;2023-02-28T10:23:44;2.97;;;2.03;;
37483;SDS011;23337;52.212;9.926;2023-02-28T10:26:13;3.70;;;2.40;;
37483;SDS011;23337;52.212;9.926;2023-02-28T10:28:40;6.30;;;2.70;;
37483;SDS011;23337;52.212;9.926;2023-02-28T10:31:08;4.47;;;2.60;;
37483;SDS011;23337;52.212;9.926;2023-02-28T10:33:36;4.13;;;3.27;;
37483;SDS011;23337;52.212;9.926;2023-02-28T10:36:03;3.00;;;2.30;;
37483;SDS011;23337;52.212;9.926;2023-02-28T10:38:35;4.43;;;3.00;;
37483;SDS011;23337;52.212;9.926;2023-02-28T10:41:12;5.73;;;3.23;;
37483;SDS011;23337;52.212;9.926;2023-02-28T10:43:39;3.50;;;2.43;;
37483;SDS011;23337;52.212;9.926;2023-02-28T10:48:38;5.47;;;2.83;;
37483;SDS011;23337;52.212;9.926;2023-02-28T10:51:07;3.97;;;2.80;;
37483;SDS011;23337;52.212;9.926;2023-02-28T10:53:45;4.20;;;2.67;;
37483;SDS011;23337;52.212;9.926;2023-02-28T11:03:58;4.30;;;2.30;;
37483;SDS011;23337;52.212;9.926;2023-02-28T11:06:31;5.00;;;2.50;;
37483;SDS011;23337;52.212;9.926;2023-02-28T11:08:58;5.70;;;2.17;;
37483;SDS011;23337;52.212;9.926;2023-02-28T11:11:26;2.87;;;2.47;;
37483;SDS011;23337;52.212;9.926;2023-02-28T11:13:53;7.03;;;2.40;;
37483;SDS011;23337;52.212;9.926;2023-02-28T11:16:20;3.97;;;2.40;;
37483;SDS011;23337;52.212;9.926;2023-02-28T11:18:50;3.40;;;2.20;;
37483;SDS011;23337;52.212;9.926;2023-02-28T11:21:19;3.93;;;2.60;;
37483;SDS011;23337;52.212;9.926;2023-02-28T11:23:46;3.43;;;2.23;;
37483;SDS011;23337;52.212;9.926;2023-02-28T11:26:13;2.93;;;2.00;;
37483;SDS011;23337;52.212;9.926;2023-02-28T11:28:40;4.87;;;2.27;;
37483;SDS011;23337;52.212;9.926;2023-02-28T11:33:40;4.30;;;2.40;;
37483;SDS011;23337;52.212;9.926;2023-02-28T11:36:11;3.80;;;2.20;;
37483;SDS011;23337;52.212;9.926;2023-02-28T11:38:38;4.90;;;1.73;;
37483;SDS011;23337;52.212;9.926;2023-02-28T11:46:24;5.93;;;2.60;;
37483;SDS011;23337;52.212;9.926;2023-02-28T11:48:58;4.90;;;2.10;;
37483;SDS011;23337;52.212;9.926;2023-02-28T11:51:41;4.03;;;2.43;;
37483;SDS011;23337;52.212;9.926;2023-02-28T11:56:41;3.60;;;2.60;;
37483;SDS011;23337;52.212;9.926;2023-02-28T11:59:22;3.63;;;2.23;;
37483;SDS011;23337;52.212;9.926;2023-02-28T12:04:33;4.23;;;2.43;;
37483;SDS011;23337;52.212;9.926;2023-02-28T12:07:07;2.60;;;1.87;;
37483;SDS011;23337;52.212;9.926;2023-02-28T12:15:04;3.10;;;2.20;;
37483;SDS011;23337;52.212;9.926;2023-02-28T12:17:41;6.23;;;2.17;;
37483;SDS011;23337;52.212;9.926;2023-02-28T12:20:31;4.57;;;1.97;;
37483;SDS011;23337;52.212;9.926;2023-02-28T12:25:47;3.37;;;2.00;;
37483;SDS011;23337;52.212;9.926;2023-02-28T12:28:17;2.37;;;1.90;;
37483;SDS011;23337;52.212;9.926;2023-02-28T12:33:33;4.33;;;2.70;;
37483;SDS011;23337;52.212;9.926;2023-02-28T12:36:00;4.57;;;2.57;;
37483;SDS011;23337;52.212;9.926;2023-02-28T12:38:29;3.20;;;2.70;;
37483;SDS011;23337;52.212;9.926;2023-02-28T12:41:00;3.10;;;2.37;;
37483;SDS011;23337;52.212;9.926;2023-02-28T12:43:28;2.20;;;1.80;;
37483;SDS011;23337;52.212;9.926;2023-02-28T12:45:57;2.57;;;1.43;;
37483;SDS011;23337;52.212;9.926;2023-02-28T12:48:25;2.07;;;1.47;;
37483;SDS011;23337;52.212;9.926;2023-02-28T12:50:53;2.17;;;1.60;;
37483;SDS011;23337;52.212;9.926;2023-02-28T12:53:27;1.80;;;1.27;;
37483;SDS011;23337;52.212;9.926;2023-02-28T13:01:15;3.70;;;2.00;;
37483;SDS011;23337;52.212;9.926;2023-02-28T13:06:14;2.60;;;1.40;;
37483;SDS011;23337;52.212;9.926;2023-02-28T13:11:37;1.97;;;1.67;;
37483;SDS011;23337;52.212;9.926;2023-02-28T13:14:05;2.83;;;1.77;;
37483;SDS011;23337;52.212;9.926;2023-02-28T13:19:40;2.73;;;2.13;;
37483;SDS011;23337;52.212;9.926;2023-02-28T13:22:15;2.83;;;1.60;;
37483;SDS011;23337;52.212;9.926;2023-02-28T13:29:35;2.07;;;1.67;;
37483;SDS011;23337;52.212;9.926;2023-02-28T13:50:07;2.40;;;1.43;;
37483;SDS011;23337;52.212;9.926;2023-02-28T13:52:48;2.93;;;1.97;;
37483;SDS011;23337;52.212;9.926;2023-02-28T14:11:28;3.07;;;1.70;;
37483;SDS011;23337;52.212;9.926;2023-02-28T14:13:56;3.03;;;1.97;;
37483;SDS011;23337;52.212;9.926;2023-02-28T14:16:26;2.37;;;2.17;;
37483;SDS011;23337;52.212;9.926;2023-02-28T14:18:58;2.40;;;1.73;;
37483;SDS011;23337;52.212;9.926;2023-02-28T14:21:27;2.43;;;2.07;;
37483;SDS011;23337;52.212;9.926;2023-02-28T14:31:32;3.63;;;2.10;;
37483;SDS011;23337;52.212;9.926;2023-02-28T14:36:44;4.17;;;1.83;;
37483;SDS011;23337;52.212;9.926;2023-02-28T14:39:12;3.20;;;2.70;;
37483;SDS011;23337;52.212;9.926;2023-02-28T14:41:39;2.80;;;2.13;;
37483;SDS011;23337;52.212;9.926;2023-02-28T14:44:19;3.93;;;2.20;;
37483;SDS011;23337;52.212;9.926;2023-02-28T14:46:46;3.23;;;2.13;;
37483;SDS011;23337;52.212;9.926;2023-02-28T14:51:46;2.07;;;1.87;;
37483;SDS011;23337;52.212;9.926;2023-02-28T14:54:13;2.30;;;2.10;;
37483;SDS011;23337;52.212;9.926;2023-02-28T14:56:40;2.90;;;2.10;;
37483;SDS011;23337;52.212;9.926;2023-02-28T15:01:51;3.13;;;1.97;;
37483;SDS011;23337;52.212;9.926;2023-02-28T15:04:26;3.57;;;2.57;;
37483;SDS011;23337;52.212;9.926;2023-02-28T15:07:08;2.83;;;2.10;;
37483;SDS011;23337;52.212;9.926;2023-02-28T15:09:34;3.33;;;1.90;;
37483;SDS011;23337;52.212;9.926;2023-02-28T15:12:00;3.23;;;2.67;;
37483;SDS011;23337;52.212;9.926;2023-02-28T15:14:26;3.90;;;2.37;;
37483;SDS011;23337;52.212;9.926;2023-02-28T15:17:00;2.30;;;2.03;;
37483;SDS011;23337;52.212;9.926;2023-02-28T15:19:28;3.03;;;2.27;;
37483;SDS011;23337;52.212;9.926;2023-02-28T15:22:00;3.93;;;2.10;;
37483;SDS011;23337;52.212;9.926;2023-02-28T15:24:33;4.03;;;1.97;;
37483;SDS011;23337;52.212;9.926;2023-02-28T15:27:03;2.20;;;2.00;;
37483;SDS011;23337;52.212;9.926;2023-02-28T15:29:30;2.03;;;1.83;;
37483;SDS011;23337;52.212;9.926;2023-02-28T15:32:03;4.87;;;2.10;;
37483;SDS011;23337;52.212;9.926;2023-02-28T15:34:34;2.77;;;1.90;;
37483;SDS011;23337;52.212;9.926;2023-02-28T15:37:01;4.83;;;2.73;;
37483;SDS011;23337;52.212;9.926;2023-02-28T15:39:27;3.97;;;2.30;;
37483;SDS011;23337;52.212;9.926;2023-02-28T15:42:16;3.07;;;2.40;;
37483;SDS011;23337;52.212;9.926;2023-02-28T15:44:43;3.00;;;2.33;;
37483;SDS011;23337;52.212;9.926;2023-02-28T15:47:16;5.17;;;2.27;;
37483;SDS011;23337;52.212;9.926;2023-02-28T15:49:47;4.77;;;2.37;;
37483;SDS011;23337;52.212;9.926;2023-02-28T15:52:15;3.13;;;2.17;;
37483;SDS011;23337;52.212;9.926;2023-02-28T15:54:42;2.80;;;2.00;;
37483;SDS011;23337;52.212;9.926;2023-02-28T15:57:17;2.90;;;2.40;;
37483;SDS011;23337;52.212;9.926;2023-02-28T15:59:48;3.13;;;2.30;;
37483;SDS011;23337;52.212;9.926;2023-02-28T16:02:16;6.07;;;2.27;;
37483;SDS011;23337;52.212;9.926;2023-02-28T16:07:30;3.67;;;2.00;;
37483;SDS011;23337;52.212;9.926;2023-02-28T16:09:56;3.90;;;2.57;;
37483;SDS011;23337;52.212;9.926;2023-02-28T16:12:24;3.30;;;2.17;;
37483;SDS011;23337;52.212;9.926;2023-02-28T16:14:51;3.70;;;2.20;;
37483;SDS011;23337;52.212;9.926;2023-02-28T16:17:22;3.57;;;2.50;;
37483;SDS011;23337;52.212;9.926;2023-02-28T16:19:48;4.17;;;2.23;;
37483;SDS011;23337;52.212;9.926;2023-02-28T16:22:14;2.60;;;2.27;;
37483;SDS011;23337;52.212;9.926;2023-02-28T16:24:40;3.27;;;2.33;;
37483;SDS011;23337;52.212;9.926;2023-02-28T16:27:06;4.30;;;2.40;;
37483;SDS011;23337;52.212;9.926;2023-02-28T16:29:35;2.63;;;2.17;;
37483;SDS011;23337;52.212;9.926;2023-02-28T16:32:04;3.43;;;2.47;;
37483;SDS011;23337;52.212;9.926;2023-02-28T16:34:30;4.80;;;2.47;;
37483;SDS011;23337;52.212;9.926;2023-02-28T16:36:56;2.53;;;2.33;;
37483;SDS011;23337;52.212;9.926;2023-02-28T16:39:23;3.37;;;2.87;;
37483;SDS011;23337;52.212;9.926;2023-02-28T16:41:49;3.97;;;2.70;;
37483;SDS011;23337;52.212;9.926;2023-02-28T16:44:29;3.00;;;2.70;;
37483;SDS011;23337;52.212;9.926;2023-02-28T16:46:57;8.03;;;6.13;;
37483;SDS011;23337;52.212;9.926;2023-02-28T16:49:25;5.70;;;5.00;;
37483;SDS011;23337;52.212;9.926;2023-02-28T16:51:51;5.07;;;3.90;;
37483;SDS011;23337;52.212;9.926;2023-02-28T16:54:17;4.17;;;2.70;;
37483;SDS011;23337;52.212;9.926;2023-02-28T16:56:45;3.40;;;2.57;;
37483;SDS011;23337;52.212;9.926;2023-02-28T16:59:12;3.47;;;2.83;;
37483;SDS011;23337;52.212;9.926;2023-02-28T17:01:38;4.53;;;2.63;;
37483;SDS011;23337;52.212;9.926;2023-02-28T17:04:04;2.93;;;2.50;;
37483;SDS011;23337;52.212;9.926;2023-02-28T17:06:30;4.43;;;2.80;;
37483;SDS011;23337;52.212;9.926;2023-02-28T17:08:57;3.30;;;2.47;;
37483;SDS011;23337;52.212;9.926;2023-02-28T17:11:24;5.03;;;3.10;;
37483;SDS011;23337;52.212;9.926;2023-02-28T17:13:50;3.73;;;3.03;;
37483;SDS011;23337;52.212;9.926;2023-02-28T17:16:28;3.70;;;3.10;;
37483;SDS011;23337;52.212;9.926;2023-02-28T17:18:58;4.53;;;3.23;;
37483;SDS011;23337;52.212;9.926;2023-02-28T17:21:24;6.13;;;3.83;;
37483;SDS011;23337;52.212;9.926;2023-02-28T17:23:50;5.97;;;4.33;;